createdAt,value
2023-08-17T00:02:00.116Z,25.08
2023-08-17T00:04:26.979Z,25.09
2023-08-17T00:06:53.730Z,25.06
2023-08-17T00:09:23.256Z,25.06
2023-08-17T00:11:50.035Z,25.05
2023-08-17T00:14:16.705Z,25.04
2023-08-17T00:16:43.417Z,25.03
2023-08-17T00:19:10.183Z,25.02
2023-08-17T00:21:39.062Z,25.06
2023-08-17T00:24:06.005Z,25.03
2023-08-17T00:26:35.084Z,25.02
2023-08-17T00:29:03.964Z,25.06
2023-08-17T00:31:30.797Z,25.05
2023-08-17T00:34:02.313Z,25.05
2023-08-17T00:36:31.356Z,25.03
2023-08-17T00:39:00.788Z,25.01
2023-08-17T00:41:29.742Z,25.00
2023-08-17T00:43:56.444Z,24.99
2023-08-17T00:46:24.320Z,24.98
2023-08-17T00:48:51.648Z,24.98
2023-08-17T00:51:21.786Z,24.99
2023-08-17T00:53:48.600Z,24.94
2023-08-17T00:56:17.614Z,24.97
2023-08-17T00:58:44.563Z,24.98
2023-08-17T01:01:13.550Z,25.01
2023-08-17T01:03:42.017Z,25.02
2023-08-17T01:06:08.856Z,25.04
2023-08-17T01:08:35.593Z,25.06
2023-08-17T01:11:47.368Z,25.05
2023-08-17T01:14:26.409Z,25.00
2023-08-17T01:17:02.506Z,24.97
2023-08-17T01:19:29.388Z,24.91
2023-08-17T01:22:01.217Z,24.87
2023-08-17T01:24:28.010Z,24.86
2023-08-17T01:26:54.830Z,24.83
2023-08-17T01:29:23.826Z,24.87
2023-08-17T01:32:11.287Z,24.90
2023-08-17T01:34:41.480Z,24.87
2023-08-17T01:37:08.811Z,24.87
2023-08-17T01:39:39.583Z,24.84
2023-08-17T01:42:06.413Z,24.78
2023-08-17T01:44:33.140Z,24.82
2023-08-17T01:47:02.212Z,24.79
2023-08-17T01:49:28.907Z,24.79
2023-08-17T01:51:55.647Z,24.80
2023-08-17T01:54:25.575Z,24.77
2023-08-17T01:56:52.313Z,24.75
2023-08-17T01:59:18.987Z,24.77
2023-08-17T02:01:47.860Z,24.78
2023-08-17T02:04:16.827Z,24.82
2023-08-17T02:06:45.710Z,24.82
2023-08-17T02:09:14.711Z,24.80
2023-08-17T02:11:43.531Z,24.82
2023-08-17T02:14:10.318Z,24.80
2023-08-17T02:16:37.055Z,24.77
2023-08-17T02:19:05.990Z,24.76
2023-08-17T02:21:32.662Z,24.76
2023-08-17T02:24:01.496Z,24.74
2023-08-17T02:26:28.252Z,24.80
2023-08-17T02:28:54.980Z,24.80
2023-08-17T02:31:21.771Z,24.78
2023-08-17T02:33:50.655Z,24.81
2023-08-17T02:36:19.928Z,24.76
2023-08-17T02:38:47.568Z,24.76
2023-08-17T02:41:14.302Z,24.69
2023-08-17T02:43:40.953Z,24.73
2023-08-17T02:46:09.814Z,24.75
2023-08-17T02:48:36.569Z,24.77
2023-08-17T02:51:03.364Z,24.74
2023-08-17T02:53:30.147Z,24.71
2023-08-17T02:55:59.707Z,24.72
2023-08-17T02:58:26.425Z,24.74
2023-08-17T03:00:55.496Z,24.75
2023-08-17T03:03:22.289Z,24.79
2023-08-17T03:05:49.092Z,24.74
2023-08-17T03:08:15.864Z,24.74
2023-08-17T03:10:44.717Z,24.72
2023-08-17T03:13:11.585Z,24.77
2023-08-17T03:15:41.158Z,24.80
2023-08-17T03:18:08.152Z,24.78
2023-08-17T03:20:37.090Z,24.74
2023-08-17T03:23:07.301Z,24.72
2023-08-17T03:25:37.377Z,24.75
2023-08-17T03:28:04.484Z,24.72
2023-08-17T03:30:33.447Z,24.70
2023-08-17T03:33:00.252Z,24.67
2023-08-17T03:35:26.948Z,24.70
2023-08-17T03:37:54.677Z,24.73
2023-08-17T03:40:21.383Z,24.68
2023-08-17T03:42:48.091Z,24.69
2023-08-17T03:45:14.854Z,24.72
2023-08-17T03:47:43.719Z,24.68
2023-08-17T03:50:13.207Z,24.71
2023-08-17T03:52:39.952Z,24.76
2023-08-17T03:55:08.455Z,24.76
2023-08-17T03:57:36.480Z,24.69
2023-08-17T04:00:09.093Z,24.61
2023-08-17T04:02:35.905Z,24.53
2023-08-17T04:05:03.483Z,24.47
2023-08-17T04:07:32.607Z,24.50
2023-08-17T04:10:01.564Z,24.50
2023-08-17T04:12:28.403Z,24.48
2023-08-17T04:14:55.176Z,24.58
2023-08-17T04:17:22.867Z,24.58
2023-08-17T04:19:49.711Z,24.61
2023-08-17T04:22:16.444Z,24.62
2023-08-17T04:24:43.159Z,24.67
2023-08-17T04:27:12.280Z,24.69
2023-08-17T04:29:39.187Z,24.73
2023-08-17T04:32:06.056Z,24.71
2023-08-17T04:34:32.812Z,24.67
2023-08-17T04:36:59.532Z,24.68
2023-08-17T04:39:27.138Z,24.65
2023-08-17T04:41:58.499Z,24.77
2023-08-17T04:44:27.385Z,24.80
2023-08-17T04:46:54.130Z,24.85
2023-08-17T04:49:20.877Z,24.88
2023-08-17T04:51:47.603Z,24.87
2023-08-17T04:54:14.283Z,24.92
2023-08-17T04:56:43.540Z,24.97
2023-08-17T04:59:12.921Z,25.01
2023-08-17T05:01:42.256Z,25.01
2023-08-17T05:04:11.668Z,25.01
2023-08-17T05:06:40.704Z,25.00
2023-08-17T05:09:07.849Z,25.02
2023-08-17T05:11:36.828Z,25.02
2023-08-17T05:14:04.264Z,25.04
2023-08-17T05:16:33.263Z,25.04
2023-08-17T05:19:00.724Z,25.03
2023-08-17T05:21:30.113Z,25.07
2023-08-17T05:23:57.627Z,25.09
2023-08-17T05:26:24.518Z,25.09
2023-08-17T05:28:51.243Z,25.10
2023-08-17T05:31:18.019Z,25.05
2023-08-17T05:33:45.236Z,25.04
2023-08-17T05:36:12.301Z,25.06
2023-08-17T05:38:41.328Z,25.08
2023-08-17T05:41:10.934Z,25.08
2023-08-17T05:43:37.745Z,25.09
2023-08-17T05:46:05.125Z,25.09
2023-08-17T05:48:50.724Z,25.09
2023-08-17T05:51:17.558Z,25.02
2023-08-17T05:53:44.369Z,25.02
2023-08-17T05:56:11.088Z,24.99
2023-08-17T05:58:37.770Z,24.93
2023-08-17T06:01:10.326Z,24.92
2023-08-17T06:03:38.388Z,24.91
2023-08-17T06:06:07.877Z,24.90
2023-08-17T06:08:34.786Z,24.91
2023-08-17T06:11:06.736Z,24.95
2023-08-17T06:13:36.815Z,25.04
2023-08-17T06:16:03.958Z,25.10
2023-08-17T06:18:31.078Z,25.10
2023-08-17T06:21:00.219Z,25.09
2023-08-17T06:23:29.239Z,25.12
2023-08-17T06:25:59.922Z,25.12
2023-08-17T06:28:29.455Z,25.14
2023-08-17T06:30:56.632Z,25.14
2023-08-17T06:33:23.571Z,25.14
2023-08-17T06:35:50.699Z,25.14
2023-08-17T06:38:18.120Z,25.15
2023-08-17T06:40:46.102Z,25.13
2023-08-17T06:43:12.903Z,25.06
2023-08-17T06:45:39.644Z,25.02
2023-08-17T06:48:07.006Z,25.00
2023-08-17T06:50:33.764Z,24.99
2023-08-17T06:53:02.760Z,24.98
2023-08-17T06:55:32.013Z,24.98
2023-08-17T06:57:59.562Z,24.96
2023-08-17T07:00:26.400Z,24.96
2023-08-17T07:02:55.379Z,24.96
2023-08-17T07:05:23.853Z,24.90
2023-08-17T07:07:54.173Z,24.97
2023-08-17T07:10:21.171Z,24.90
2023-08-17T07:12:47.862Z,24.95
2023-08-17T07:15:14.607Z,24.93
2023-08-17T07:17:43.456Z,24.96
2023-08-17T07:22:42.193Z,24.97
2023-08-17T07:25:10.175Z,25.00
2023-08-17T07:27:37.024Z,24.99
2023-08-17T07:30:04.213Z,24.99
2023-08-17T07:32:31.020Z,25.00
2023-08-17T07:34:57.804Z,25.02
2023-08-17T07:37:34.134Z,25.01
2023-08-17T07:40:01.834Z,25.00
2023-08-17T07:42:28.681Z,25.01
2023-08-17T07:44:55.578Z,25.01
2023-08-17T07:47:22.272Z,25.03
2023-08-17T07:49:51.169Z,25.02
2023-08-17T07:52:17.853Z,25.03
2023-08-17T07:54:44.814Z,25.03
2023-08-17T07:57:11.827Z,25.02
2023-08-17T07:59:38.640Z,25.06
2023-08-17T08:02:05.440Z,25.02
2023-08-17T08:04:32.140Z,25.04
2023-08-17T08:06:59.004Z,25.03
2023-08-17T08:09:25.726Z,25.05
2023-08-17T08:11:52.535Z,25.00
2023-08-17T08:14:21.601Z,25.03
2023-08-17T08:16:50.577Z,25.04
2023-08-17T08:19:17.533Z,25.03
2023-08-17T08:21:44.210Z,25.03
2023-08-17T08:24:22.181Z,25.04
2023-08-17T08:27:00.061Z,25.03
2023-08-17T08:29:26.806Z,25.05
2023-08-17T08:31:54.137Z,25.04
2023-08-17T08:34:23.017Z,25.05
2023-08-17T08:36:51.918Z,25.07
2023-08-17T08:39:19.691Z,25.05
2023-08-17T08:41:46.397Z,25.05
2023-08-17T08:44:13.079Z,25.05
2023-08-17T08:46:42.020Z,25.08
2023-08-17T08:49:09.894Z,25.08
2023-08-17T08:51:36.560Z,25.07
2023-08-17T08:54:06.599Z,25.11
2023-08-17T08:56:34.265Z,25.09
2023-08-17T08:59:02.904Z,25.12
2023-08-17T09:01:33.874Z,25.12
2023-08-17T09:04:01.938Z,25.13
2023-08-17T09:06:29.065Z,25.14
2023-08-17T09:08:56.001Z,25.14
2023-08-17T09:11:22.686Z,25.14
2023-08-17T09:13:53.730Z,25.15
2023-08-17T09:16:22.311Z,25.15
2023-08-17T09:18:50.378Z,25.19
2023-08-17T09:21:26.077Z,25.16
2023-08-17T09:23:59.100Z,25.17
2023-08-17T09:26:26.283Z,25.18
2023-08-17T09:28:55.236Z,25.16
2023-08-17T09:31:24.845Z,25.16
2023-08-17T09:33:54.480Z,25.20
2023-08-17T09:36:27.126Z,25.18
2023-08-17T09:38:54.391Z,25.17
2023-08-17T09:41:21.331Z,25.20
2023-08-17T09:43:48.458Z,25.21
2023-08-17T09:46:17.925Z,25.19
2023-08-17T09:48:45.716Z,25.20
2023-08-17T09:51:15.043Z,25.22
2023-08-17T09:53:44.282Z,25.22
2023-08-17T09:58:43.283Z,25.24
2023-08-17T10:01:10.117Z,25.23
2023-08-17T10:03:39.144Z,25.22
2023-08-17T10:06:08.089Z,25.20
2023-08-17T10:08:40.775Z,25.24
2023-08-17T10:11:10.174Z,25.24
2023-08-17T10:13:59.090Z,25.23
2023-08-17T10:16:31.660Z,25.25
2023-08-17T10:19:29.410Z,25.25
2023-08-17T10:22:10.162Z,25.25
2023-08-17T10:24:37.563Z,25.25
2023-08-17T10:27:07.769Z,25.25
2023-08-17T10:29:37.145Z,25.24
2023-08-17T10:32:06.065Z,25.24
2023-08-17T10:34:35.043Z,25.22
2023-08-17T10:37:04.383Z,25.26
2023-08-17T10:39:31.966Z,25.24
2023-08-17T10:41:59.295Z,25.24
2023-08-17T10:44:38.299Z,25.25
2023-08-17T10:47:27.112Z,25.27
2023-08-17T10:50:03.052Z,25.26
2023-08-17T10:52:36.680Z,25.25
2023-08-17T10:55:08.231Z,25.26
2023-08-17T10:57:40.708Z,25.24
2023-08-17T11:00:35.720Z,25.23
2023-08-17T11:03:06.778Z,25.27
2023-08-17T11:05:47.411Z,25.27
2023-08-17T11:08:35.484Z,25.29
2023-08-17T11:11:10.803Z,25.27
2023-08-17T11:13:45.872Z,25.27
2023-08-17T11:16:16.028Z,25.27
2023-08-17T11:18:47.628Z,25.28
2023-08-17T11:21:19.404Z,25.27
2023-08-17T11:23:46.798Z,25.27
2023-08-17T11:26:16.770Z,25.30
2023-08-17T11:28:45.902Z,25.30
2023-08-17T11:31:14.013Z,25.30
2023-08-17T11:33:41.193Z,25.27
2023-08-17T11:36:09.523Z,25.31
2023-08-17T11:38:41.343Z,25.32
2023-08-17T11:41:10.414Z,25.31
2023-08-17T11:43:39.475Z,25.32
2023-08-17T11:46:06.932Z,25.32
2023-08-17T11:51:06.110Z,25.34
2023-08-17T11:53:36.748Z,25.32
2023-08-17T11:56:06.695Z,25.36
2023-08-17T11:58:47.719Z,25.34
2023-08-17T12:01:17.169Z,25.32
2023-08-17T12:03:44.681Z,25.35
2023-08-17T12:06:11.963Z,25.34
2023-08-17T12:08:38.709Z,25.36
2023-08-17T12:11:05.951Z,25.33
2023-08-17T12:13:36.118Z,25.35
2023-08-17T12:16:03.281Z,25.35
2023-08-17T12:18:31.789Z,25.38
2023-08-17T12:20:58.521Z,25.37
2023-08-17T12:23:25.295Z,25.36
2023-08-17T12:25:56.204Z,25.34
2023-08-17T12:28:23.506Z,25.35
2023-08-17T12:30:58.332Z,25.35
2023-08-17T12:33:25.042Z,25.36
2023-08-17T12:35:51.781Z,25.34
2023-08-17T12:38:18.989Z,25.35
2023-08-17T12:40:47.851Z,25.35
2023-08-17T12:43:15.977Z,25.34
2023-08-17T12:45:42.986Z,25.33
2023-08-17T12:48:09.829Z,25.34
2023-08-17T12:50:43.475Z,25.36
2023-08-17T12:53:10.785Z,25.35
2023-08-17T12:55:37.562Z,25.34
2023-08-17T12:58:04.627Z,25.34
2023-08-17T13:00:31.308Z,25.34
2023-08-17T13:02:58.058Z,25.35
2023-08-17T13:05:24.864Z,25.34
2023-08-17T13:07:51.718Z,25.34
2023-08-17T13:10:20.853Z,25.36
2023-08-17T13:12:49.682Z,25.37
2023-08-17T13:15:16.491Z,25.33
2023-08-17T13:17:43.839Z,25.36
2023-08-17T13:20:11.662Z,25.37
2023-08-17T13:22:38.420Z,25.36
2023-08-17T13:25:08.267Z,25.36
2023-08-17T13:27:37.130Z,25.38
2023-08-17T13:30:04.121Z,25.37
2023-08-17T13:32:33.550Z,25.39
2023-08-17T13:35:02.501Z,25.37
2023-08-17T13:37:29.561Z,25.37
2023-08-17T13:39:56.748Z,25.38
2023-08-17T13:42:25.945Z,25.38
2023-08-17T13:44:54.897Z,25.38
2023-08-17T13:47:21.694Z,25.39
2023-08-17T13:49:50.608Z,25.38
2023-08-17T13:52:17.259Z,25.38
2023-08-17T13:54:46.824Z,25.41
2023-08-17T13:57:13.591Z,25.40
2023-08-17T13:59:40.319Z,25.42
2023-08-17T14:02:07.433Z,25.37
2023-08-17T14:04:34.094Z,25.45
2023-08-17T14:07:00.743Z,25.44
2023-08-17T14:09:27.479Z,25.44
2023-08-17T14:11:56.485Z,25.43
2023-08-17T14:14:23.320Z,25.41
2023-08-17T14:16:50.030Z,25.44
2023-08-17T14:19:16.760Z,25.44
2023-08-17T14:21:43.465Z,25.44
2023-08-17T14:24:10.811Z,25.46
2023-08-17T14:26:37.561Z,25.45
2023-08-17T14:29:04.611Z,25.44
2023-08-17T14:31:33.604Z,25.43
2023-08-17T14:34:06.188Z,25.42
2023-08-17T14:36:33.370Z,25.38
2023-08-17T14:39:00.140Z,25.41
2023-08-17T14:41:32.559Z,25.43
2023-08-17T14:44:03.472Z,25.42
2023-08-17T14:46:30.657Z,25.44
2023-08-17T14:49:00.788Z,25.44
2023-08-17T14:51:32.021Z,25.42
2023-08-17T14:53:59.042Z,25.44
2023-08-17T14:56:25.871Z,25.45
2023-08-17T14:58:52.588Z,25.46
2023-08-17T15:01:21.593Z,25.42
2023-08-17T15:03:50.716Z,25.46
2023-08-17T15:06:32.331Z,25.45
2023-08-17T15:09:01.406Z,25.44
2023-08-17T15:11:28.205Z,25.44
2023-08-17T15:13:54.927Z,25.44
2023-08-17T15:16:28.999Z,25.45
2023-08-17T15:18:58.736Z,25.46
2023-08-17T15:21:25.578Z,25.46
2023-08-17T15:23:52.312Z,25.44
2023-08-17T15:26:19.098Z,25.45
2023-08-17T15:28:45.882Z,25.46
2023-08-17T15:31:17.526Z,25.46
2023-08-17T15:33:44.513Z,25.46
2023-08-17T15:36:11.387Z,25.46
2023-08-17T15:38:38.561Z,25.46
2023-08-17T15:41:08.034Z,25.46
2023-08-17T15:43:36.935Z,25.47
2023-08-17T15:46:06.761Z,25.47
2023-08-17T15:48:33.569Z,25.44
2023-08-17T15:51:00.323Z,25.46
2023-08-17T15:53:27.066Z,25.45
2023-08-17T15:55:53.801Z,25.47
2023-08-17T15:58:20.584Z,25.45
2023-08-17T16:00:47.321Z,25.47
2023-08-17T16:03:15.481Z,25.47
2023-08-17T16:05:42.376Z,25.47
2023-08-17T16:08:11.671Z,25.47
2023-08-17T16:10:38.497Z,25.48
2023-08-17T16:13:07.555Z,25.49
2023-08-17T16:15:34.229Z,25.48
2023-08-17T16:18:01.806Z,25.47
2023-08-17T16:20:34.670Z,25.48
2023-08-17T16:23:04.105Z,25.48
2023-08-17T16:25:32.742Z,25.48
2023-08-17T16:28:02.193Z,25.48
2023-08-17T16:30:28.971Z,25.48
2023-08-17T16:32:55.808Z,25.47
2023-08-17T16:35:22.978Z,25.43
2023-08-17T16:37:49.808Z,25.48
2023-08-17T16:40:31.951Z,25.48
2023-08-17T16:43:06.148Z,25.47
2023-08-17T16:45:32.913Z,25.49
2023-08-17T16:47:59.753Z,25.46
2023-08-17T16:50:33.128Z,25.50
2023-08-17T16:53:00.471Z,25.47
2023-08-17T16:55:27.313Z,25.49
2023-08-17T16:57:58.264Z,25.48
2023-08-17T17:00:27.319Z,25.49
2023-08-17T17:02:56.442Z,25.49
2023-08-17T17:05:23.314Z,25.49
2023-08-17T17:07:50.027Z,25.49
2023-08-17T17:10:18.861Z,25.48
2023-08-17T17:12:45.596Z,25.50
2023-08-17T17:15:14.446Z,25.49
2023-08-17T17:17:41.315Z,25.52
2023-08-17T17:20:08.918Z,25.49
2023-08-17T17:22:35.704Z,25.50
2023-08-17T17:25:05.056Z,25.50
2023-08-17T17:27:32.006Z,25.47
2023-08-17T17:29:58.774Z,25.52
2023-08-17T17:32:25.502Z,25.50
2023-08-17T17:34:52.340Z,25.51
2023-08-17T17:37:21.109Z,25.51
2023-08-17T17:39:48.485Z,25.52
2023-08-17T17:42:17.515Z,25.49
2023-08-17T17:44:47.160Z,25.52
2023-08-17T17:47:16.034Z,25.50
2023-08-17T17:49:43.106Z,25.51
2023-08-17T17:52:12.285Z,25.53
2023-08-17T17:54:41.321Z,25.53
2023-08-17T17:57:11.182Z,25.54
2023-08-17T17:59:40.150Z,25.53
2023-08-17T18:02:06.997Z,25.53
2023-08-17T18:04:35.876Z,25.54
2023-08-17T18:07:05.975Z,25.53
2023-08-17T18:09:36.218Z,25.52
2023-08-17T18:12:03.956Z,25.56
2023-08-17T18:14:33.889Z,25.55
2023-08-17T18:17:00.831Z,25.55
2023-08-17T18:19:28.116Z,25.55
2023-08-17T18:21:57.844Z,25.52
2023-08-17T18:24:24.672Z,25.54
2023-08-17T18:26:51.391Z,25.55
2023-08-17T18:29:18.047Z,25.54
2023-08-17T18:31:47.056Z,25.57
2023-08-17T18:34:16.525Z,25.57
2023-08-17T18:36:45.419Z,25.55
2023-08-17T18:39:12.193Z,25.55
2023-08-17T18:41:41.119Z,25.54
2023-08-17T18:44:07.856Z,25.55
2023-08-17T18:46:34.810Z,25.55
2023-08-17T18:49:03.737Z,25.55
2023-08-17T18:51:30.584Z,25.54
2023-08-17T18:53:57.417Z,25.54
2023-08-17T18:56:24.195Z,25.55
2023-08-17T18:58:53.299Z,25.56
2023-08-17T19:01:20.034Z,25.54
2023-08-17T19:03:47.212Z,25.55
2023-08-17T19:06:16.784Z,25.56
2023-08-17T19:08:43.450Z,25.55
2023-08-17T19:11:10.282Z,25.53
2023-08-17T19:13:39.174Z,25.54
2023-08-17T19:16:08.088Z,25.55
2023-08-17T19:18:37.038Z,25.57
2023-08-17T19:21:04.605Z,25.56
2023-08-17T19:23:33.485Z,25.56
2023-08-17T19:26:00.462Z,25.56
2023-08-17T19:28:27.292Z,25.55
2023-08-17T19:30:54.058Z,25.56
2023-08-17T19:33:20.815Z,25.55
2023-08-17T19:35:50.468Z,25.54
2023-08-17T19:38:19.533Z,25.56
2023-08-17T19:40:47.854Z,25.54
2023-08-17T19:43:14.852Z,25.56
2023-08-17T19:45:42.278Z,25.57
2023-08-17T19:48:09.422Z,25.55
2023-08-17T19:50:36.177Z,25.56
2023-08-17T19:53:02.908Z,25.57
2023-08-17T19:55:29.632Z,25.57
2023-08-17T19:57:56.560Z,25.56
2023-08-17T20:00:25.557Z,25.56
2023-08-17T20:02:54.719Z,25.56
2023-08-17T20:05:21.527Z,25.57
2023-08-17T20:07:48.378Z,25.57
2023-08-17T20:10:15.374Z,25.56
2023-08-17T20:12:44.406Z,25.53
2023-08-17T20:15:11.499Z,25.57
2023-08-17T20:17:38.512Z,25.59
2023-08-17T20:20:09.102Z,25.58
2023-08-17T20:22:36.004Z,25.57
2023-08-17T20:25:05.027Z,25.58
2023-08-17T20:27:33.976Z,25.58
2023-08-17T20:30:03.659Z,25.59
2023-08-17T20:32:32.786Z,25.57
2023-08-17T20:35:01.740Z,25.58
2023-08-17T20:37:29.173Z,25.59
2023-08-17T20:39:56.341Z,25.58
2023-08-17T20:42:23.052Z,25.58
2023-08-17T20:44:49.871Z,25.59
2023-08-17T20:47:16.685Z,25.59
2023-08-17T20:49:43.930Z,25.58
2023-08-17T20:52:11.898Z,25.56
2023-08-17T20:54:38.710Z,25.59
2023-08-17T20:57:05.686Z,25.58
2023-08-17T20:59:33.070Z,25.57
2023-08-17T21:01:59.893Z,25.59
2023-08-17T21:04:26.668Z,25.59
2023-08-17T21:06:55.640Z,25.59
2023-08-17T21:09:22.374Z,25.58
2023-08-17T21:11:49.112Z,25.60
2023-08-17T21:14:15.910Z,25.60
2023-08-17T21:16:45.068Z,25.59
2023-08-17T21:19:11.937Z,25.60
2023-08-17T21:21:39.260Z,25.59
2023-08-17T21:24:06.141Z,25.59
2023-08-17T21:26:32.987Z,25.60
2023-08-17T21:28:59.781Z,25.59
2023-08-17T21:31:26.539Z,25.59
2023-08-17T21:33:53.353Z,25.60
2023-08-17T21:36:22.243Z,25.59
2023-08-17T21:38:49.024Z,25.59
2023-08-17T21:41:15.836Z,25.60
2023-08-17T21:43:42.624Z,25.58
2023-08-17T21:46:09.341Z,25.60
2023-08-17T21:48:38.347Z,25.60
2023-08-17T21:51:06.021Z,25.58
2023-08-17T21:53:32.996Z,25.60
2023-08-17T21:55:59.730Z,25.61
2023-08-17T21:58:28.604Z,25.60
2023-08-17T22:00:55.338Z,25.61
2023-08-17T22:03:22.185Z,25.60
2023-08-17T22:05:49.022Z,25.59
2023-08-17T22:08:15.831Z,25.59
2023-08-17T22:10:45.366Z,25.59
2023-08-17T22:13:12.318Z,25.60
2023-08-17T22:15:41.624Z,25.58
2023-08-17T22:18:08.524Z,25.59
2023-08-17T22:20:36.107Z,25.60
2023-08-17T22:23:05.125Z,25.59
2023-08-17T22:25:32.101Z,25.58
2023-08-17T22:27:58.950Z,25.58
2023-08-17T22:30:28.674Z,25.59
2023-08-17T22:32:55.557Z,25.60
2023-08-17T22:35:25.051Z,25.59
2023-08-17T22:37:53.200Z,25.58
2023-08-17T22:40:22.219Z,25.57
2023-08-17T22:42:48.979Z,25.58
2023-08-17T22:45:15.928Z,25.57
2023-08-17T22:47:42.718Z,25.55
2023-08-17T22:50:10.093Z,25.54
2023-08-17T22:52:39.681Z,25.56
2023-08-17T22:55:09.731Z,25.52
2023-08-17T22:57:36.472Z,25.53
2023-08-17T23:00:03.604Z,25.54
2023-08-17T23:02:30.403Z,25.51
2023-08-17T23:04:59.279Z,25.55
2023-08-17T23:07:26.049Z,25.53
2023-08-17T23:09:52.898Z,25.52
2023-08-17T23:12:19.617Z,25.52
2023-08-17T23:14:48.494Z,25.51
2023-08-17T23:17:33.708Z,25.50
2023-08-17T23:20:00.444Z,25.51
2023-08-17T23:22:27.307Z,25.50
2023-08-17T23:24:54.010Z,25.53
2023-08-17T23:27:20.761Z,25.53
2023-08-17T23:29:47.562Z,25.51
2023-08-17T23:32:26.896Z,25.48
2023-08-17T23:34:55.057Z,25.53
2023-08-17T23:37:23.934Z,25.52
2023-08-17T23:39:51.244Z,25.53
2023-08-17T23:42:20.076Z,25.56
2023-08-17T23:44:51.464Z,25.50
2023-08-17T23:47:18.160Z,25.51
2023-08-17T23:49:47.063Z,25.50
2023-08-17T23:52:13.785Z,25.48
2023-08-17T23:54:42.802Z,25.47
2023-08-17T23:57:09.573Z,25.49
2023-08-17T23:59:36.362Z,25.47
